Time;durP1;ratioP1;P1;durP2;ratioP2;P2;SDS_P1;SDS_P2;PMS_P1;PMS_P2;Temp;Humidity;BMP_temperature;BMP_pressure;BME280_temperature;BME280_humidity;BME280_pressure;Samples;Min_cycle;Max_cycle;Signal;HPM_P1;HPM_P2
2021/03/25 07:26:32;;;;;;;;;4.20;4.20;;;;;4.17;45.48;100085.84;499174;106;407781;-56
2021/03/25 07:27:36;;;;;;;;;7.40;5.10;;;;;4.15;45.70;100081.68;499838;108;351570;-55
2021/03/25 07:28:40;;;;;;;;;3.50;3.20;;;;;4.23;44.71;100084.67;495571;108;353672;-53
2021/03/25 07:29:45;;;;;;;;;7.00;5.20;;;;;4.24;43.56;100096.72;490698;111;351391;-57
2021/03/25 07:30:51;;;;;;;;;5.60;5.10;;;;;4.34;43.34;100089.20;494555;108;355846;-53
2021/03/25 07:32:03;;;;;;;;;48.00;40.00;;;;;4.37;42.91;100089.84;495994;109;380569;-55
2021/03/25 07:33:09;;;;;;;;;7.00;4.90;;;;;4.47;43.36;100090.14;493682;109;355607;-59
2021/03/25 07:34:14;;;;;;;;;7.60;4.60;;;;;4.53;43.06;100082.80;494102;109;351922;-55
2021/03/25 07:35:27;;;;;;;;;5.00;4.70;;;;;4.57;43.15;100089.47;494688;109;354703;-56
2021/03/25 07:36:33;;;;;;;;;5.10;5.00;;;;;4.57;43.15;100089.47;493879;109;347871;-55
2021/03/25 07:37:38;;;;;;;;;10.60;5.40;;;;;4.67;43.00;100083.73;493654;109;355309;-57
2021/03/25 07:38:42;;;;;;;;;6.00;6.00;;;;;4.65;41.67;100091.62;494224;109;353565;-54
2021/03/25 07:39:49;;;;;;;;;7.00;5.50;;;;;4.76;41.78;100085.74;495401;108;355079;-54
2021/03/25 07:41:07;;;;;;;;;5.90;3.70;;;;;4.24;42.40;99977.31;493350;109;351021;-57
2021/03/25 07:42:11;;;;;;;;;4.70;4.30;;;;;4.80;40.37;100076.82;492677;109;347124;-57
2021/03/25 07:43:19;;;;;;;;;5.30;4.80;;;;;4.96;40.81;100082.73;485173;110;351862;-54
2021/03/25 07:44:31;;;;;;;;;3.20;1.30;;;;;5.04;40.94;100084.87;482990;112;345943;-54
2021/03/25 07:45:36;;;;;;;;;2.50;2.50;;;;;5.08;40.22;100081.14;485515;112;348028;-57
2021/03/25 07:46:50;;;;;;;;;3.60;2.90;;;;;5.20;40.20;100085.53;462262;116;346896;-52
2021/03/25 07:47:55;;;;;;;;;5.30;5.30;;;;;5.20;40.20;100085.53;457504;118;348271;-55
2021/03/25 07:49:06;;;;;;;;;5.80;3.70;;;;;5.48;39.90;100082.02;461122;118;344930;-56
2021/03/25 07:50:26;;;;;;;;;5.00;2.90;;;;;5.98;38.93;100077.85;460177;118;340118;-54
2021/03/25 07:51:47;;;;;;;;;4.00;3.30;;;;;6.53;37.80;99975.09;461517;116;332666;-55
2021/03/25 07:52:52;;;;;;;;;5.00;2.40;;;;;6.53;37.80;99975.09;461903;116;320785;-54
2021/03/25 07:54:28;;;;;;;;;3.60;3.40;;;;;7.91;36.53;100074.44;460345;118;322015;-51
2021/03/25 07:55:37;;;;;;;;;4.30;3.70;;;;;8.44;35.22;100071.34;457972;117;321676;-57
2021/03/25 07:56:57;;;;;;;;;2.90;2.90;;;;;9.29;32.78;100076.80;461055;116;321019;-56
2021/03/25 07:58:03;;;;;;;;;0.20;0.20;;;;;9.67;28.14;100065.81;461433;116;320361;-59
2021/03/25 07:59:07;;;;;;;;;1.20;0.00;;;;;10.17;26.04;100069.42;460726;118;320150;-55
2021/03/25 08:00:20;;;;;;;;;2.20;1.30;;;;;10.23;25.00;100070.75;451760;120;321181;-55
2021/03/25 08:01:24;;;;;;;;;3.00;1.90;;;;;10.48;24.29;100061.61;461136;116;320681;-55
2021/03/25 08:02:33;;;;;;;;;2.70;1.00;;;;;10.83;24.22;100072.52;462511;116;319856;-51
2021/03/25 08:03:48;;;;;;;;;1.80;1.00;;;;;11.16;25.26;100073.11;463171;117;321002;-55
2021/03/25 08:04:53;;;;;;;;;1.20;1.20;;;;;11.26;23.81;100087.09;468018;116;321165;-58
2021/03/25 08:05:57;;;;;;;;;2.00;2.00;;;;;11.39;23.27;100065.80;471100;115;321766;-59
2021/03/25 08:07:04;;;;;;;;;2.90;2.20;;;;;11.60;22.92;100074.37;467952;115;321683;-58
2021/03/25 08:08:19;;;;;;;;;2.40;1.70;;;;;11.50;22.48;100073.56;467274;115;320033;-55
2021/03/25 08:09:25;;;;;;;;;16.40;15.40;;;;;11.68;22.36;100071.91;459793;116;329835;-59
2021/03/25 08:10:33;;;;;;;;;2.70;2.70;;;;;12.02;21.87;100066.23;467395;115;321110;-54
2021/03/25 08:11:51;;;;;;;;;3.70;2.50;;;;;12.16;22.40;100069.21;466679;116;321851;-56
2021/03/25 08:13:02;;;;;;;;;4.00;3.40;;;;;12.61;23.71;100057.97;493909;109;321643;-59
2021/03/25 08:14:14;;;;;;;;;4.50;4.00;;;;;12.98;23.95;100071.07;494419;109;321093;-57
2021/03/25 08:15:25;;;;;;;;;2.70;2.70;;;;;12.84;22.43;100076.85;495322;109;320437;-53
2021/03/25 08:16:32;;;;;;;;;2.70;2.00;;;;;13.14;21.35;100078.32;492301;109;321348;-54
2021/03/25 08:17:40;;;;;;;;;5.20;3.40;;;;;13.50;22.91;100075.75;498019;108;321730;-56
2021/03/25 08:19:19;;;;;;;;;3.80;2.00;;;;;12.75;21.51;100069.81;494192;108;321475;-54
2021/03/25 08:20:28;;;;;;;;;5.00;2.90;;;;;12.75;21.51;100069.81;491518;109;321990;-57
2021/03/25 08:21:48;;;;;;;;;3.40;2.90;;;;;13.55;21.08;100071.67;496673;108;321295;-56
2021/03/25 08:23:04;;;;;;;;;3.70;3.20;;;;;13.19;20.62;100072.63;494920;109;321496;-56
2021/03/25 08:24:42;;;;;;;;;4.90;3.50;;;;;13.43;21.14;100079.97;498569;108;321595;-56
2021/03/25 08:25:47;;;;;;;;;3.10;2.90;;;;;13.74;22.42;100069.85;489371;108;321301;-54
2021/03/25 08:26:58;;;;;;;;;2.50;2.50;;;;;13.97;21.92;100074.47;493057;108;321472;-59
2021/03/25 08:28:13;;;;;;;;;2.90;2.40;;;;;13.93;21.19;100074.94;494227;110;321077;-56
2021/03/25 08:29:20;;;;;;;;;4.60;4.20;;;;;14.11;21.47;100069.62;492141;110;321506;-55
2021/03/25 08:30:48;;;;;;;;;4.10;4.10;;;;;13.55;20.47;100078.75;491025;110;321058;-55
2021/03/25 08:32:01;;;;;;;;;4.20;3.50;;;;;13.50;20.69;100087.11;488730;110;321863;-57
2021/03/25 08:33:13;;;;;;;;;4.50;4.20;;;;;13.64;20.16;100093.67;493306;110;320522;-58
2021/03/25 08:34:33;;;;;;;;;3.50;3.20;;;;;13.69;21.64;100080.86;485968;110;322234;-60
2021/03/25 08:35:38;;;;;;;;;5.30;4.00;;;;;13.85;20.47;100093.34;493479;110;321973;-58
2021/03/25 08:36:51;;;;;;;;;6.70;5.30;;;;;13.42;20.28;100088.86;484595;112;320504;-58
2021/03/25 08:38:32;;;;;;;;;4.40;3.70;;;;;13.64;20.28;100094.50;485695;110;321872;-59
2021/03/25 08:39:44;;;;;;;;;5.30;4.40;;;;;13.89;21.38;100086.78;488185;110;321215;-60
2021/03/25 08:40:50;;;;;;;;;2.80;2.80;;;;;13.50;19.31;100089.75;491200;110;320260;-58
2021/03/25 08:41:58;;;;;;;;;4.30;3.40;;;;;13.50;19.31;100089.75;494069;110;321994;-59
2021/03/25 08:43:02;;;;;;;;;4.40;3.60;;;;;13.94;20.90;100085.33;493283;110;321482;-58
2021/03/25 08:44:09;;;;;;;;;3.40;2.20;;;;;13.84;19.27;100091.69;491417;110;321121;-59
2021/03/25 08:45:20;;;;;;;;;2.50;2.50;;;;;13.65;20.47;100080.34;475731;113;322034;-57
2021/03/25 08:46:28;;;;;;;;;5.00;4.00;;;;;13.69;18.70;100084.32;477314;113;321650;-57
2021/03/25 08:47:37;;;;;;;;;4.20;3.80;;;;;13.78;19.97;100087.01;475019;113;322025;-57
2021/03/25 08:48:43;;;;;;;;;3.90;3.20;;;;;13.40;19.92;100078.44;474033;114;322071;-59
2021/03/25 08:49:56;;;;;;;;;5.40;4.80;;;;;13.39;22.88;100082.05;475091;114;321687;-58
2021/03/25 08:51:03;;;;;;;;;3.50;3.50;;;;;13.71;22.41;100084.16;475314;113;321975;-60
2021/03/25 08:52:10;;;;;;;;;5.20;4.50;;;;;14.03;20.04;100074.86;466407;116;321498;-59
2021/03/25 08:53:26;;;;;;;;;5.00;4.50;;;;;14.46;21.04;100076.63;474783;114;321856;-61
2021/03/25 08:54:33;;;;;;;;;4.70;4.20;;;;;14.21;20.22;100073.80;476047;114;321473;-60
2021/03/25 08:55:37;;;;;;;;;7.30;5.00;;;;;14.09;20.14;100068.95;471312;114;322622;-61
2021/03/25 08:56:43;;;;;;;;;2.20;2.20;;;;;13.74;19.23;100073.31;476116;113;320469;-59
2021/03/25 08:57:47;;;;;;;;;4.30;4.30;;;;;13.42;19.13;100075.69;474910;114;321496;-56
2021/03/25 08:58:52;;;;;;;;;2.90;1.70;;;;;12.72;19.36;100083.27;472942;115;321839;-59
2021/03/25 09:00:01;;;;;;;;;2.90;2.90;;;;;13.11;19.74;100070.73;473983;114;320943;-57
2021/03/25 09:01:06;;;;;;;;;1.40;1.40;;;;;13.06;20.06;100065.91;474425;113;321204;-58
2021/03/25 09:02:13;;;;;;;;;2.40;2.30;;;;;13.10;20.23;100077.80;473486;113;320956;-58
2021/03/25 09:03:20;;;;;;;;;3.30;2.60;;;;;13.07;20.18;100079.91;474644;114;321034;-57
2021/03/25 09:04:25;;;;;;;;;6.50;5.10;;;;;12.87;20.53;100075.73;475478;114;321977;-58
2021/03/25 09:05:31;;;;;;;;;6.40;5.20;;;;;12.80;21.17;100073.66;474266;114;321467;-58
2021/03/25 09:06:37;;;;;;;;;5.90;4.90;;;;;12.80;21.17;100073.66;476020;113;321672;-58
2021/03/25 09:07:41;;;;;;;;;5.00;4.40;;;;;13.01;20.85;100075.20;476220;113;321497;-56
2021/03/25 09:08:46;;;;;;;;;5.10;4.00;;;;;13.33;21.50;100066.86;475617;113;321676;-58
2021/03/25 09:09:54;;;;;;;;;4.70;4.70;;;;;13.11;21.76;100075.98;473918;114;321366;-59
2021/03/25 09:11:04;;;;;;;;;6.30;5.00;;;;;13.21;22.39;100070.67;488444;110;321537;-59
2021/03/25 09:12:16;;;;;;;;;6.00;4.90;;;;;12.88;22.62;100072.12;489431;110;321502;-57
2021/03/25 09:13:22;;;;;;;;;4.30;2.40;;;;;12.91;21.71;100074.45;486616;111;321989;-60
2021/03/25 09:14:27;;;;;;;;;5.30;5.10;;;;;12.88;22.18;100072.95;488735;110;320964;-59
2021/03/25 09:15:33;;;;;;;;;5.30;4.40;;;;;12.62;21.90;100072.81;473325;114;321340;-62
2021/03/25 09:16:38;;;;;;;;;7.00;5.30;;;;;12.63;21.92;100073.64;475708;113;320882;-62
2021/03/25 09:17:47;;;;;;;;;5.50;4.60;;;;;13.16;22.61;100063.20;474243;114;322020;-62
2021/03/25 09:18:51;;;;;;;;;3.60;3.60;;;;;13.05;21.53;100068.70;474407;114;321765;-58
2021/03/25 09:19:57;;;;;;;;;5.70;5.10;;;;;13.20;21.55;100069.02;474685;113;322310;-60
2021/03/25 09:21:10;;;;;;;;;5.80;5.40;;;;;13.04;21.27;100070.50;476454;113;320904;-61
2021/03/25 09:22:39;;;;;;;;;4.40;3.90;;;;;13.11;21.70;100065.46;473259;114;321806;-59
2021/03/25 09:23:48;;;;;;;;;7.50;4.30;;;;;12.93;22.60;100077.76;473397;114;321634;-60
2021/03/25 09:25:15;;;;;;;;;4.80;4.40;;;;;12.99;22.81;100080.63;470963;113;321667;-61
2021/03/25 09:26:44;;;;;;;;;7.20;3.30;;;;;12.89;21.96;100071.14;475262;114;324446;-60
2021/03/25 09:27:55;;;;;;;;;6.80;5.10;;;;;13.12;23.96;100063.66;473840;114;320774;-60
2021/03/25 09:29:06;;;;;;;;;7.30;5.90;;;;;13.37;22.77;100060.31;473720;114;321274;-58
2021/03/25 09:30:24;;;;;;;;;7.00;5.90;;;;;13.52;22.80;100057.98;474776;114;321179;-60
2021/03/25 09:31:28;;;;;;;;;5.10;4.20;;;;;13.02;21.24;100063.73;473109;114;321470;-60
2021/03/25 09:32:38;;;;;;;;;6.60;4.90;;;;;13.02;21.24;100063.73;472543;115;320820;-62
2021/03/25 09:33:47;;;;;;;;;6.20;5.30;;;;;13.04;21.55;100067.87;471261;113;321812;-60
2021/03/25 09:34:51;;;;;;;;;6.00;5.20;;;;;13.06;21.63;100065.09;483039;110;321802;-61
2021/03/25 09:35:56;;;;;;;;;5.10;4.60;;;;;13.21;22.73;100068.88;488290;110;321219;-59
2021/03/25 09:37:00;;;;;;;;;4.10;4.00;;;;;13.12;22.82;100064.48;486594;110;321495;-60
2021/03/25 09:38:04;;;;;;;;;3.30;3.30;;;;;12.98;21.87;100062.34;488770;109;320761;-59
2021/03/25 09:39:34;;;;;;;;;1.60;1.10;;;;;13.13;22.64;100060.87;488100;110;320929;-60
2021/03/25 09:40:50;;;;;;;;;3.90;3.40;;;;;12.91;21.24;100064.75;485432;111;321746;-61
2021/03/25 09:41:55;;;;;;;;;5.00;4.00;;;;;12.31;22.29;100052.98;487793;111;320686;-58
2021/03/25 09:43:16;;;;;;;;;1.30;1.30;;;;;12.31;22.29;100052.98;485818;111;320356;-60
2021/03/25 09:44:27;;;;;;;;;3.90;3.50;;;;;12.34;23.34;100058.78;486896;110;320872;-59
2021/03/25 09:45:34;;;;;;;;;4.50;4.50;;;;;12.13;22.44;100053.73;488618;110;321292;-60
2021/03/25 09:46:40;;;;;;;;;4.60;3.00;;;;;12.18;22.54;100063.80;489719;110;321710;-58
2021/03/25 09:47:45;;;;;;;;;4.50;3.50;;;;;11.98;21.98;100052.52;481233;111;321760;-59
2021/03/25 09:48:49;;;;;;;;;3.50;2.60;;;;;12.10;22.01;100061.91;484217;111;320967;-59
2021/03/25 09:49:56;;;;;;;;;3.60;3.60;;;;;12.27;22.07;100055.08;488373;111;321303;-58
2021/03/25 09:51:02;;;;;;;;;4.00;2.80;;;;;11.88;22.36;100065.69;483265;112;321703;-58
2021/03/25 09:52:30;;;;;;;;;3.20;2.90;;;;;11.88;22.36;100065.69;484420;111;321468;-61
2021/03/25 09:53:45;;;;;;;;;3.40;2.70;;;;;11.84;21.76;100063.48;488542;110;320994;-60
2021/03/25 09:54:51;;;;;;;;;4.60;3.70;;;;;11.86;22.52;100059.75;490895;110;321992;-60
2021/03/25 09:56:01;;;;;;;;;3.30;3.30;;;;;11.86;22.52;100059.75;486921;110;320778;-60
2021/03/25 09:57:16;;;;;;;;;5.50;4.80;;;;;11.52;22.53;100056.70;489153;110;321333;-59
2021/03/25 09:58:40;;;;;;;;;1.00;1.00;;;;;11.52;22.53;100056.70;491299;110;320860;-58
2021/03/25 09:59:49;;;;;;;;;6.30;4.10;;;;;11.31;22.77;100058.63;488112;110;322021;-59
2021/03/25 10:00:56;;;;;;;;;3.60;3.10;;;;;11.34;22.34;100055.72;489204;110;321987;-57
2021/03/25 10:02:00;;;;;;;;;4.40;3.50;;;;;11.51;22.32;100060.29;488291;110;322008;-60
2021/03/25 10:03:06;;;;;;;;;4.20;3.20;;;;;11.36;22.40;100064.29;489857;110;321561;-60
2021/03/25 10:04:42;;;;;;;;;3.30;2.90;;;;;11.27;22.93;100063.33;490901;109;320694;-60
2021/03/25 10:05:46;;;;;;;;;4.50;3.10;;;;;10.76;22.96;100057.42;485824;110;321828;-56
2021/03/25 10:07:39;;;;;;;;;3.50;2.90;;;;;10.82;22.97;100078.72;490659;110;320676;-56
2021/03/25 10:08:51;;;;;;;;;1.60;1.00;;;;;10.80;23.01;100061.43;476653;111;321077;-60
2021/03/25 10:10:23;;;;;;;;;3.80;3.20;;;;;10.21;23.86;100062.16;492421;110;321333;-60
2021/03/25 10:11:46;;;;;;;;;1.50;0.50;;;;;9.98;24.45;100062.28;490764;109;319679;-57
2021/03/25 10:12:54;;;;;;;;;4.00;4.00;;;;;9.97;24.79;100063.24;492114;110;321669;-59
2021/03/25 10:13:59;;;;;;;;;3.60;3.30;;;;;10.16;24.63;100053.84;494664;110;321996;-56
2021/03/25 10:15:20;;;;;;;;;5.00;4.50;;;;;10.21;25.23;100062.16;488427;109;320774;-59
2021/03/25 10:16:48;;;;;;;;;2.60;2.20;;;;;10.24;25.62;100059.31;491900;110;320963;-59
2021/03/25 10:17:52;;;;;;;;;4.70;3.50;;;;;10.39;25.56;100051.91;489889;110;321706;-59
2021/03/25 10:18:57;;;;;;;;;6.50;4.00;;;;;10.30;25.44;100053.53;492528;110;321592;-56
2021/03/25 10:20:02;;;;;;;;;4.00;3.20;;;;;10.54;25.21;100047.97;493001;110;320788;-57
2021/03/25 10:21:08;;;;;;;;;5.00;4.10;;;;;10.43;24.81;100062.02;493131;110;321982;-59
2021/03/25 10:22:17;;;;;;;;;6.80;5.00;;;;;10.55;24.54;100057.49;493162;110;321463;-59
2021/03/25 10:23:22;;;;;;;;;7.00;4.60;;;;;10.55;24.54;100057.49;492195;110;321553;-58
2021/03/25 10:24:28;;;;;;;;;5.30;4.20;;;;;10.57;24.22;100061.64;488929;110;322045;-60
2021/03/25 10:25:32;;;;;;;;;4.40;3.80;;;;;10.53;24.17;100056.80;489676;109;321401;-58
2021/03/25 10:26:38;;;;;;;;;4.90;3.80;;;;;10.53;24.17;100056.80;492318;110;321444;-56
2021/03/25 10:27:42;;;;;;;;;4.60;3.50;;;;;10.75;24.21;100053.14;489682;110;321828;-59
2021/03/25 10:28:48;;;;;;;;;4.70;4.70;;;;;10.45;24.53;100056.64;488613;110;321319;-59
2021/03/25 10:29:52;;;;;;;;;2.80;2.80;;;;;10.11;24.87;100064.72;487630;110;321718;-59
2021/03/25 10:30:57;;;;;;;;;3.10;3.10;;;;;9.76;25.06;100060.63;489177;110;322223;-58
2021/03/25 10:32:03;;;;;;;;;4.50;4.50;;;;;9.92;25.01;100060.19;491394;110;321479;-58
2021/03/25 10:33:08;;;;;;;;;4.10;3.40;;;;;9.55;25.12;100058.95;491894;109;321596;-59
2021/03/25 10:34:18;;;;;;;;;1.80;0.50;;;;;9.29;25.48;100050.63;487784;110;320323;-61
2021/03/25 10:35:25;;;;;;;;;5.70;3.30;;;;;9.07;26.00;100038.45;491838;110;322253;-59
2021/03/25 10:36:37;;;;;;;;;6.30;4.10;;;;;9.08;26.11;100050.58;490881;110;327974;-55
2021/03/25 10:37:45;;;;;;;;;5.50;3.90;;;;;9.01;26.23;100059.84;488418;110;328465;-58
2021/03/25 10:38:52;;;;;;;;;6.20;4.30;;;;;8.86;27.00;100048.02;488436;110;330056;-59
2021/03/25 10:40:02;;;;;;;;;7.20;5.90;;;;;8.60;27.49;100047.44;488740;110;333699;-57
2021/03/25 10:41:06;;;;;;;;;1.80;1.30;;;;;8.56;28.01;100036.39;487509;110;330734;-57
2021/03/25 10:42:16;;;;;;;;;6.60;4.00;;;;;8.50;28.11;100050.78;485258;111;334134;-57
2021/03/25 10:43:27;;;;;;;;;5.90;4.90;;;;;8.44;28.42;100040.81;492641;110;334085;-58
2021/03/25 10:44:32;;;;;;;;;6.30;5.10;;;;;8.44;28.42;100040.81;489154;110;330879;-57
2021/03/25 10:45:39;;;;;;;;;5.90;5.00;;;;;8.32;28.86;100040.89;490931;110;335262;-57
2021/03/25 10:46:45;;;;;;;;;4.70;3.50;;;;;8.39;28.49;100053.39;481939;110;334312;-56
2021/03/25 10:47:53;;;;;;;;;6.40;4.50;;;;;8.49;27.97;100037.84;493517;110;336141;-57
2021/03/25 10:49:00;;;;;;;;;1.60;0.40;;;;;8.31;28.14;100047.07;491645;110;330999;-55
2021/03/25 10:50:06;;;;;;;;;5.50;4.00;;;;;8.22;27.93;100038.17;490884;110;334809;-56
2021/03/25 10:51:15;;;;;;;;;7.60;5.20;;;;;8.30;28.06;100038.40;490030;111;337238;-56
2021/03/25 10:52:22;;;;;;;;;6.30;4.50;;;;;8.36;27.92;100031.89;487753;110;333640;-57
2021/03/25 10:53:29;;;;;;;;;6.90;4.10;;;;;8.39;27.90;100029.86;489475;110;335411;-60
2021/03/25 10:54:36;;;;;;;;;2.90;1.80;;;;;8.41;27.89;100034.97;488657;110;336098;-56
2021/03/25 10:55:42;;;;;;;;;3.20;2.50;;;;;8.46;27.71;100038.08;485124;110;333302;-58
2021/03/25 10:56:46;;;;;;;;;2.70;2.50;;;;;8.39;27.58;100034.27;489465;110;336294;-59
2021/03/25 10:57:50;;;;;;;;;11.70;9.80;;;;;8.44;27.91;100038.20;487881;110;331791;-59
2021/03/25 10:58:59;;;;;;;;;41.10;35.00;;;;;8.44;27.91;100038.20;488402;110;383544;-58
2021/03/25 11:00:07;;;;;;;;;32.00;28.40;;;;;8.49;27.42;100035.22;488491;110;351674;-57
2021/03/25 11:01:16;;;;;;;;;7.10;7.00;;;;;8.39;27.29;100039.48;488483;110;332524;-55
2021/03/25 11:02:23;;;;;;;;;5.50;5.30;;;;;8.39;27.41;100032.48;488896;110;329619;-55
2021/03/25 11:03:30;;;;;;;;;5.90;3.70;;;;;8.34;27.53;100028.57;488455;109;329970;-58
2021/03/25 11:04:35;;;;;;;;;6.40;5.50;;;;;8.33;27.77;100026.87;490834;110;334177;-57
2021/03/25 11:05:40;;;;;;;;;2.00;2.00;;;;;8.32;27.89;100022.61;490301;110;329625;-59
2021/03/25 11:06:44;;;;;;;;;3.70;1.60;;;;;8.24;27.69;100026.66;489413;110;327654;-59
2021/03/25 11:07:48;;;;;;;;;5.20;4.70;;;;;8.19;27.59;100033.98;487457;111;332994;-57
2021/03/25 11:08:52;;;;;;;;;2.70;2.20;;;;;8.19;27.59;100033.98;488997;110;328327;-57
2021/03/25 11:09:58;;;;;;;;;3.40;2.60;;;;;8.29;27.80;100021.06;486640;110;329270;-56
2021/03/25 11:11:06;;;;;;;;;5.10;3.50;;;;;8.31;27.64;100023.55;486735;111;329915;-57
2021/03/25 11:12:16;;;;;;;;;3.30;2.50;;;;;8.39;27.59;100023.81;487126;110;327732;-56
2021/03/25 11:13:20;;;;;;;;;5.50;3.40;;;;;8.38;27.70;100022.98;485572;111;330519;-57
2021/03/25 11:14:29;;;;;;;;;3.50;3.50;;;;;8.40;27.42;100020.25;485844;111;332143;-58
2021/03/25 11:15:35;;;;;;;;;2.80;2.30;;;;;8.40;27.42;100020.25;483095;111;330258;-55
2021/03/25 11:16:42;;;;;;;;;4.30;3.00;;;;;8.41;27.40;100019.29;486967;110;332133;-57
2021/03/25 11:17:47;;;;;;;;;3.70;2.90;;;;;8.41;27.02;100017.54;490250;110;329761;-57
2021/03/25 11:18:55;;;;;;;;;2.90;2.90;;;;;8.44;26.92;100021.69;488941;110;329498;-54
2021/03/25 11:20:00;;;;;;;;;2.50;2.30;;;;;8.31;26.74;100020.94;488006;111;328032;-57
2021/03/25 11:21:05;;;;;;;;;4.30;2.20;;;;;8.34;26.88;100018.12;488823;110;330580;-59
2021/03/25 11:22:10;;;;;;;;;3.00;1.30;;;;;7.73;27.18;99918.37;489014;110;330790;-61
2021/03/25 11:23:15;;;;;;;;;3.10;2.40;;;;;8.29;27.10;100018.45;489133;110;330242;-61
2021/03/25 11:24:22;;;;;;;;;3.70;3.00;;;;;8.29;27.10;100018.45;486985;110;333136;-62
2021/03/25 11:25:29;;;;;;;;;2.10;2.10;;;;;8.22;27.30;100015.49;486094;110;329863;-61
2021/03/25 11:26:34;;;;;;;;;4.30;3.10;;;;;8.27;27.71;100012.52;474982;114;326476;-64
2021/03/25 11:27:38;;;;;;;;;4.70;2.50;;;;;8.27;27.71;100012.52;486145;111;331264;-61
2021/03/25 11:28:42;;;;;;;;;4.00;3.80;;;;;8.24;27.59;100013.59;488458;109;332268;-55
2021/03/25 11:29:47;;;;;;;;;5.90;2.60;;;;;8.28;27.75;100013.34;485803;111;331109;-55
2021/03/25 11:30:52;;;;;;;;;1.70;1.10;;;;;8.30;27.78;100012.27;487864;109;330763;-54
2021/03/25 11:32:15;;;;;;;;;4.20;3.50;;;;;8.34;27.55;100020.73;489921;110;330151;-56
2021/03/25 11:33:24;;;;;;;;;3.80;3.00;;;;;8.30;27.67;100014.89;487047;110;331314;-55
2021/03/25 11:34:28;;;;;;;;;0.20;0.20;;;;;8.21;27.42;100013.83;489366;111;323780;-57
2021/03/25 11:35:40;;;;;;;;;5.00;3.00;;;;;8.11;27.25;100009.42;489756;110;330681;-55
2021/03/25 11:36:46;;;;;;;;;1.80;1.80;;;;;8.14;27.29;100006.56;490973;108;331617;-55
2021/03/25 11:37:50;;;;;;;;;2.30;1.80;;;;;8.19;27.17;100013.09;489375;108;329426;-57
2021/03/25 11:38:54;;;;;;;;;2.80;1.20;;;;;8.19;27.17;100013.09;486481;112;328983;-56
2021/03/25 11:40:04;;;;;;;;;3.10;2.30;;;;;8.12;27.15;100011.08;488939;110;330828;-55
2021/03/25 11:41:09;;;;;;;;;3.50;3.50;;;;;8.23;27.44;100006.70;493287;108;327863;-57
2021/03/25 11:42:21;;;;;;;;;3.40;3.00;;;;;8.23;27.21;100005.88;493573;108;327823;-55
2021/03/25 11:43:26;;;;;;;;;3.10;3.00;;;;;8.19;26.39;100007.03;488645;110;329173;-56
2021/03/25 11:44:39;;;;;;;;;2.60;2.60;;;;;8.19;26.39;100007.03;490705;109;328287;-57
2021/03/25 11:45:44;;;;;;;;;3.50;2.70;;;;;8.24;26.74;100005.75;488961;110;327924;-58
2021/03/25 11:46:49;;;;;;;;;1.30;1.00;;;;;8.19;26.50;100009.65;489557;109;326704;-58
2021/03/25 11:47:54;;;;;;;;;0.90;0.90;;;;;8.00;26.29;100006.79;489864;110;326449;-56
2021/03/25 11:49:05;;;;;;;;;2.30;1.00;;;;;7.98;26.10;99998.24;493541;108;328766;-56
2021/03/25 11:50:50;;;;;;;;;3.90;2.00;;;;;7.93;25.91;100004.66;488457;110;330787;-57
2021/03/25 11:51:59;;;;;;;;;1.90;1.60;;;;;7.98;26.29;99999.08;470008;114;328349;-58
2021/03/25 11:53:05;;;;;;;;;4.30;2.50;;;;;8.00;26.20;100006.79;471484;114;329880;-56
2021/03/25 11:54:24;;;;;;;;;1.50;1.50;;;;;8.08;26.28;100009.66;469992;114;321368;-58
2021/03/25 11:55:31;;;;;;;;;2.60;2.60;;;;;8.11;26.19;100004.20;470515;114;323566;-56
2021/03/25 11:56:37;;;;;;;;;2.30;1.70;;;;;8.11;26.19;100004.20;468342;115;329553;-57
2021/03/25 11:57:41;;;;;;;;;4.50;3.40;;;;;8.07;25.81;100003.61;480301;110;331345;-57
2021/03/25 11:58:50;;;;;;;;;2.10;1.80;;;;;8.14;25.95;100002.17;490639;109;330333;-56
2021/03/25 12:00:07;;;;;;;;;2.80;2.70;;;;;8.12;26.05;100004.08;491565;108;328312;-57
2021/03/25 12:01:21;;;;;;;;;8.00;6.70;;;;;8.13;25.98;100000.52;490955;108;335226;-57
2021/03/25 12:02:30;;;;;;;;;4.00;2.90;;;;;8.13;25.98;100000.52;491493;109;324691;-56
2021/03/25 12:03:38;;;;;;;;;5.30;3.00;;;;;8.09;26.20;100004.31;490015;110;328855;-57
2021/03/25 12:04:42;;;;;;;;;1.90;1.30;;;;;8.18;26.58;100005.38;488596;110;324582;-54
2021/03/25 12:05:46;;;;;;;;;2.10;2.10;;;;;8.15;26.27;100005.62;490246;108;327410;-55
2021/03/25 12:06:59;;;;;;;;;3.40;2.40;;;;;8.15;26.27;100005.62;492104;108;330351;-56
2021/03/25 12:08:06;;;;;;;;;2.60;2.00;;;;;8.20;26.50;100000.86;489396;110;328480;-57
2021/03/25 12:09:13;;;;;;;;;1.70;1.30;;;;;8.20;26.32;99996.47;487055;110;326632;-56
2021/03/25 12:10:21;;;;;;;;;4.70;2.50;;;;;8.27;26.36;99998.63;490139;108;328953;-56
2021/03/25 12:11:24;;;;;;;;;3.30;2.30;;;;;8.42;26.75;99992.23;490208;110;327239;-55
2021/03/25 12:12:28;;;;;;;;;5.20;2.90;;;;;8.49;26.72;99998.63;488879;108;327385;-56
2021/03/25 12:13:32;;;;;;;;;4.30;3.20;;;;;8.49;26.72;99998.63;489871;109;328292;-57
2021/03/25 12:14:36;;;;;;;;;3.60;2.80;;;;;8.64;26.69;99993.98;493693;108;329009;-57
2021/03/25 12:15:41;;;;;;;;;3.70;3.00;;;;;8.64;26.69;99993.98;490229;110;327526;-57
2021/03/25 12:16:45;;;;;;;;;3.20;3.00;;;;;8.66;26.37;99995.52;492655;108;327831;-58
2021/03/25 12:17:53;;;;;;;;;3.70;3.70;;;;;8.63;25.16;99982.70;485888;110;329045;-56
2021/03/25 12:18:58;;;;;;;;;4.20;3.40;;;;;8.49;25.59;99993.41;494881;108;328624;-54
2021/03/25 12:20:08;;;;;;;;;1.50;1.50;;;;;8.49;25.59;99993.41;475074;113;321614;-55
2021/03/25 12:21:13;;;;;;;;;3.00;3.00;;;;;8.51;25.07;99988.89;472417;114;328921;-56
2021/03/25 12:22:19;;;;;;;;;3.50;3.20;;;;;8.51;25.07;99988.89;474047;114;323416;-53
2021/03/25 12:23:25;;;;;;;;;2.80;2.80;;;;;8.53;25.10;100000.05;471831;113;321089;-58
2021/03/25 12:24:30;;;;;;;;;3.90;2.80;;;;;8.61;25.54;99988.97;476134;112;322646;-57
2021/03/25 12:25:34;;;;;;;;;3.30;2.90;;;;;8.65;25.44;99999.09;477010;113;321432;-54
2021/03/25 12:26:40;;;;;;;;;2.90;2.40;;;;;8.44;25.08;99995.56;473733;113;321395;-61
2021/03/25 12:27:44;;;;;;;;;1.40;1.40;;;;;8.37;25.00;99992.58;478712;112;326833;-58
2021/03/25 12:28:49;;;;;;;;;5.80;4.90;;;;;8.37;25.00;99992.58;471758;113;327832;-57
2021/03/25 12:29:53;;;;;;;;;5.50;3.90;;;;;8.37;25.26;99984.73;467492;115;328679;-57
2021/03/25 12:30:57;;;;;;;;;6.10;6.10;;;;;8.37;25.26;99984.73;468671;115;329204;-55
2021/03/25 12:32:01;;;;;;;;;5.10;3.30;;;;;8.31;25.49;99995.64;467280;115;329388;-57
2021/03/25 12:33:09;;;;;;;;;3.50;3.00;;;;;8.31;25.49;99995.64;466518;112;321379;-56
2021/03/25 12:34:15;;;;;;;;;3.10;1.70;;;;;8.31;25.58;99990.42;469576;115;330652;-59
2021/03/25 12:35:22;;;;;;;;;6.40;4.90;;;;;8.34;25.79;99997.22;465805;115;330808;-58
2021/03/25 12:36:26;;;;;;;;;4.50;3.80;;;;;8.36;25.90;99980.46;470600;114;330049;-56
2021/03/25 12:37:30;;;;;;;;;4.70;4.10;;;;;8.34;25.99;99990.20;469362;115;329232;-57
2021/03/25 12:38:35;;;;;;;;;8.10;4.70;;;;;8.34;25.99;99990.20;468898;115;328523;-53
2021/03/25 12:39:40;;;;;;;;;5.00;3.70;;;;;8.37;26.13;99983.91;468998;115;322250;-54
2021/03/25 12:40:44;;;;;;;;;5.40;5.40;;;;;8.37;26.32;99987.34;468550;113;328505;-55
2021/03/25 12:41:51;;;;;;;;;6.60;5.10;;;;;8.44;26.52;99978.09;472232;113;332290;-58
2021/03/25 12:42:56;;;;;;;;;8.50;7.20;;;;;8.45;26.64;99991.99;462145;115;330715;-58
2021/03/25 12:44:01;;;;;;;;;8.80;7.20;;;;;8.49;26.15;99982.95;459555;117;322793;-57
2021/03/25 12:45:09;;;;;;;;;7.40;5.50;;;;;8.49;26.15;99982.95;467910;115;330722;-58
2021/03/25 12:46:13;;;;;;;;;4.40;3.30;;;;;8.59;26.35;99981.26;468883;115;331667;-54